Etusivu
METAR-TAF:

METAR-TAF

Lentoasemat :

Savonlinnan lentoasema

Savonlinna, Suomi

Leveyspiiri: 61-57N, Pituuspiiri: 028-57E, korkeus merenpinnasta: 95 m

Tämänhetkinen sää

Tämä raportti tehtiin 28 minuuttia sitten, kello 18.20 UTC
tyyntä
Lämpötila 1°C
Kosteus 93%
Ilmanpaine 1012 hPa
Näkyvyys: 8000 m
Pilvistä 800 ft:n korkeudessa

METAR: EFSA 191820Z AUTO 00000KT 8000 OVC008 01/00 Q1012

Aika: 20:48 (18:48 UTC)

Sääennuste

Tämä raportti tehtiin 4 tuntia ja 11 minuuttia sitten, kello 14.37 UTC
Ennuste voimassa 19. päivästä klo 15 UTC - 19. päivään klo 19 UTC
Tuuli 2 kn eri suunnista
Näkyvyys 10 km tai enemmän
Pilvistä 700 ft:n korkeudessa
Ajoittain
19. päivästä klo 15 UTC - 19. päivään klo 19 UTC
Näkyvyys: 6000 m
Hajanaisia pilviä 1000 ft:n korkeudessa
Hajonneita pilviä 2000 ft:n korkeudessa
heikkoja vesikuuroja

TAF: EFSA 191437Z 1915/1919 VRB02KT 9999 OVC007 TEMPO 1915/1919 6000 -SHRA SCT010 BKN020

Säähavainnot ja -ennusteet yli 4000 lentoasemalta (METAR- ja TAF-raportit).

Käytössä olevat sääasemat on merkitty karttaan keltaisilla ja punaisilla pisteillä.

Aseta hiiri pisteen päälle nähdäksesi sääaseman nimen.

Klikkaa sitten nähdäksesi säähavainnot ja -ennusteet.

Kartan vaihtaminen: klikkaa mustalla rastilla varustettuja vihreitä pisteitä, niin voit zoomata sisään; viivalla varustettua vihreää pistettä, niin voit zoomata ulos tai vihreitä nuolia, niin pääset viereisille kartoille.


METAR-TAF: